Have a Safe July 4th! 

Flight Track Log - Related Links

Times and Time Zones

All times are in EDT time to prevent confusion due to time zone crossing. See the DAL571 flight status page for this flight to view local times or setup timezone preferences in your user account.

Time Position Orientation Groundspeed Altitude Reporting Facility
EDT Latitude Longitude Course Direction KTS MPH feet Rate Location/Type
Fri 10:08:15 AM 33.6333 -84.4000 145° Southeast 166 191 2,400  Level Atlanta TRACON
Fri 10:09:21 AM 33.6167 -84.3167 103° East 234 269 4,600 2,450 Climbing Atlanta TRACON
Fri 10:10:15 AM 33.5667 -84.2667 140° Southeast 291 335 7,300 2,947 Climbing Atlanta TRACON
Fri 10:11:00 AM 33.2400 -84.1231 140° Southeast  Level FlightAware Approximate
Fri 10:11:15 AM 33.4833 -84.2833 189° South 304 350 10,200  Level Atlanta TRACON
Fri 10:12:00 AM 33.1369 -84.0201 140° Southeast  Level FlightAware Approximate
Fri 10:12:41 AM 33.3475 -84.2478 168° South 349 402 12,500  Level Atlanta Center
Fri 10:13:00 AM 33.0351 -83.9263 145° Southeast  Level FlightAware Approximate
Fri 10:13:41 AM 33.2619 -84.1581 139° Southeast 369 425 14,700  Level Atlanta Center
Fri 10:14:41 AM 33.1681 -84.0611 139° Southeast 416 479 17,200 2,250 Climbing Atlanta Center
Fri 10:15:41 AM 33.0719 -83.9669 141° Southeast 441 507 19,200 2,050 Climbing Atlanta Center
Fri 10:16:41 AM 32.9697 -83.8803 145° Southeast 451 519 21,300 2,000 Climbing Atlanta Center
Fri 10:17:41 AM 32.8608 -83.7917 146° Southeast 462 532 23,200 1,800 Climbing Atlanta Center
Fri 10:18:41 AM 32.7500 -83.7006 145° Southeast 478 550 24,900 1,650 Climbing Atlanta Center
Fri 10:19:41 AM 32.6414 -83.6022 143° Southeast 484 557 26,500 1,450 Climbing Atlanta Center
Fri 10:20:41 AM 32.5344 -83.4944 140° Southeast 495 570 27,800 446 Climbing Atlanta Center
Fri 10:23:03 AM 32.2706 -83.2292 140° Southeast 519 597 28,000 59 Climbing Jacksonville Center
Fri 10:24:03 AM 32.1600 -83.1183 140° Southeast 524 603 28,000  Level Jacksonville Center
Fri 10:25:03 AM 32.0578 -83.0200 141° Southeast 524 603 28,000  Level Jacksonville Center
Fri 10:26:03 AM 31.9472 -82.9097 140° Southeast 524 603 28,000  Level Jacksonville Center
Fri 10:27:03 AM 31.8344 -82.7997 140° Southeast 524 603 28,000 650 Level Jacksonville Center
Fri 10:28:03 AM 31.7217 -82.6875 140° Southeast 524 603 29,300 1,000 Climbing Jacksonville Center
Fri 10:29:03 AM 31.6108 -82.5803 141° Southeast 524 603 30,000 233 Climbing Jacksonville Center
Fri 10:31:03 AM 31.3761 -82.3719 143° Southeast 524 603 30,000  Level Jacksonville Center
Fri 10:32:03 AM 31.2547 -82.2728 145° Southeast 529 609 30,000 1,000 Level Jacksonville Center
Fri 10:33:03 AM 31.1372 -82.1767 145° Southeast 529 609 32,000 1,850 Climbing Jacksonville Center
Fri 10:34:03 AM 31.0197 -82.0781 144° Southeast 524 603 33,700 1,900 Climbing Jacksonville Center
Fri 10:35:03 AM 30.9128 -81.9869 144° Southeast 510 587 35,800 1,150 Climbing Jacksonville Center
Fri 10:36:03 AM 30.7992 -81.8914 144° Southeast 498 573 36,000 100 Climbing Jacksonville Center
Fri 10:37:03 AM 30.6814 -81.7936 144° Southeast 504 580 36,000  Level Jacksonville Center
Fri 10:38:03 AM 30.5658 -81.6958 144° Southeast 509 586 36,000  Level Jacksonville Center
Fri 10:39:03 AM 30.4458 -81.5986 145° Southeast 521 600 36,000  Level Jacksonville Center
Fri 10:40:03 AM 30.3258 -81.5111 148° Southeast 521 600 36,000  Level Jacksonville Center
Fri 10:41:03 AM 30.1936 -81.4556 160° South 500 575 36,000  Level Jacksonville Center
Fri 10:42:03 AM 30.0575 -81.4022 161° South 506 582 36,000  Level Jacksonville Center
Fri 10:43:03 AM 29.9231 -81.3517 162° South 511 588 36,000  Level Jacksonville Center
Fri 10:44:03 AM 29.7783 -81.2964 162° South 506 582 36,000  Level Jacksonville Center
Fri 10:45:03 AM 29.6442 -81.2461 162° South 501 577 36,000  Level Jacksonville Center
Fri 10:46:03 AM 29.5100 -81.1958 162° South 501 577 36,000  Level Jacksonville Center
Fri 10:47:03 AM 29.3944 -81.1456 159° South 496 571 36,000  Level Jacksonville Center
Fri 10:48:03 AM 29.2681 -81.0714 153° Southeast 496 571 36,000  Level Jacksonville Center
Fri 10:50:03 AM 29.0547 -80.8447 137° Southeast 516 594 36,000  Level Miami Center
Fri 10:51:03 AM 28.9517 -80.7297 136° Southeast 522 601 36,000  Level Miami Center
Fri 10:52:03 AM 28.8522 -80.6194 136° Southeast 511 588 36,000  Level Miami Center
Fri 10:53:03 AM 28.7581 -80.4719 126° Southeast 511 588 36,000  Level Miami Center
Fri 10:54:04 AM 28.6758 -80.3367 125° Southeast 525 604 36,000  Level Miami Center
Fri 10:55:03 AM 28.5936 -80.1994 124° Southeast 525 604 36,000  Level Miami Center
Fri 10:56:03 AM 28.5214 -80.0769 124° Southeast 525 604 36,000  Level Miami Center
Fri 10:57:04 AM 28.4386 -79.9400 124° Southeast 525 604 36,000  Level Miami Center
Fri 10:58:04 AM 28.3481 -79.7911 125° Southeast 530 610 36,000  Level Miami Center
Fri 10:59:03 AM 28.2650 -79.6569 125° Southeast 525 604 36,000  Level Miami Center
Fri 11:00:04 AM 28.1819 -79.5206 125° Southeast 525 604 36,000  Level Miami Center
Fri 11:01:03 AM 28.1011 -79.3847 124° Southeast 525 604 36,000  Level Miami Center
Fri 11:02:03 AM 28.0156 -79.2486 125° Southeast 525 604 36,000  Level Miami Center
Fri 11:03:04 AM 27.9322 -79.1153 125° Southeast 525 604 36,000  Level Miami Center
Fri 11:04:03 AM 27.8528 -78.9822 124° Southeast 518 596 36,000  Level Miami Center
Fri 11:05:03 AM 27.7711 -78.8517 125° Southeast 518 596 36,000 496 Level Miami Center
Fri 11:06:04 AM 27.6956 -78.7283 125° Southeast 524 603 37,000 500 Climbing Miami Center
Fri 11:07:03 AM 27.6053 -78.5839 125° Southeast 524 603 37,000  Level Miami Center
Fri 11:08:03 AM 27.5317 -78.4492 122° Southeast 518 596 37,000  Level Miami Center
Fri 11:09:04 AM 27.4497 -78.3122 124° Southeast 513 590 37,000  Level Miami Center
Fri 11:10:03 AM 27.3717 -78.1756 123° Southeast 513 590 37,000  Level Miami Center
Fri 11:11:03 AM 27.2914 -78.0369 123° Southeast 518 596 37,000  Level Miami Center
Fri 11:12:03 AM 27.2131 -77.9097 125° Southeast 512 589 37,000  Level Miami Center
Fri 11:13:03 AM 27.1303 -77.7761 125° Southeast 512 589 37,000  Level Miami Center
Fri 11:14:03 AM 27.0539 -77.6400 122° Southeast 512 589 37,000  Level Miami Center
Fri 11:15:03 AM 26.9814 -77.5114 122° Southeast 519 597 37,000  Level Miami Center
Fri 11:16:03 AM 26.8961 -77.3758 125° Southeast 509 586 37,000  Level Miami Center
Fri 11:17:04 AM 26.8131 -77.2381 124° Southeast 515 593 37,000  Level Miami Center
Fri 11:18:04 AM 26.7339 -77.1006 123° Southeast 516 594 37,000  Level Miami Center
Fri 11:19:03 AM 26.6528 -76.9633 123° Southeast 521 600 37,000  Level Miami Center
Fri 11:20:03 AM 26.5733 -76.8356 125° Southeast 516 594 37,000  Level Miami Center
Fri 11:21:03 AM 26.4939 -76.7078 125° Southeast 511 588 37,000  Level Miami Center
Fri 11:22:03 AM 26.4142 -76.5733 123° Southeast 511 588 37,000  Level Miami Center
Fri 11:23:03 AM 26.3344 -76.4414 124° Southeast 517 595 37,000  Level Miami Center
Fri 11:24:04 AM 26.2525 -76.3072 124° Southeast 517 595 37,000  Level Miami Center
Fri 11:25:03 AM 26.1725 -76.1733 124° Southeast 512 589 37,000  Level Miami Center
Fri 11:26:03 AM 26.0944 -76.0442 124° Southeast 512 589 37,000  Level Miami Center
Fri 11:27:04 AM 26.0081 -75.9083 125° Southeast 518 596 37,000  Level Miami Center
Fri 11:28:03 AM 25.9342 -75.7819 123° Southeast 518 596 37,000  Level Miami Center
Fri 11:29:03 AM 25.8494 -75.6486 125° Southeast 515 593 37,000  Level Miami Center
Fri 11:30:04 AM 25.7689 -75.5181 124° Southeast 509 586 37,000  Level Miami Center
Fri 11:31:03 AM 25.6947 -75.4058 126° Southeast 514 592 37,000  Level Miami Center
Fri 11:32:03 AM 25.6117 -75.2731 125° Southeast 519 597 37,000  Level Miami Center
Fri 11:33:04 AM 25.5308 -75.1431 125° Southeast 524 603 37,000  Level Miami Center
Fri 11:34:04 AM 25.4500 -75.0131 125° Southeast 516 594 37,000  Level Miami Center
Fri 11:35:03 AM 25.3689 -74.8856 125° Southeast 516 594 37,000  Level Miami Center
Fri 11:36:04 AM 25.2856 -74.7511 124° Southeast 516 594 37,000  Level Miami Center
Fri 11:37:04 AM 25.2019 -74.6194 125° Southeast 516 594 37,000  Level Miami Center
Fri 11:38:04 AM 25.1228 -74.4947 125° Southeast 510 587 37,000  Level Miami Center
Fri 11:39:04 AM 25.0392 -74.3633 125° Southeast 515 593 37,000  Level Miami Center
Fri 11:40:03 AM 24.9575 -74.2344 125° Southeast 515 593 37,000  Level Miami Center
Fri 11:41:03 AM 24.8672 -74.0942 125° Southeast 515 593 37,000  Level Miami Center
Fri 11:42:04 AM 24.7875 -73.9703 125° Southeast 515 593 37,000  Level Miami Center
Fri 11:43:04 AM 24.7056 -73.8442 126° Southeast 515 593 37,000  Level Miami Center
Fri 11:44:03 AM 24.6256 -73.7136 124° Southeast 515 593 37,000  Level Miami Center
Fri 11:45:03 AM 24.5436 -73.5922 127° Southeast 510 587 37,000  Level Miami Center
Fri 11:46:04 AM 24.4611 -73.4619 125° Southeast 510 587 37,000  Level Miami Center
Fri 11:47:04 AM 24.3747 -73.3367 127° Southeast 515 593 37,000  Level Miami Center
Fri 11:48:03 AM 24.2986 -73.2111 124° Southeast 510 587 37,000  Level Miami Center
Fri 11:49:04 AM 24.2139 -73.0861 127° Southeast 510 587 37,000  Level Miami Center
Fri 11:50:04 AM 24.1314 -72.9611 126° Southeast 510 587 37,000  Level Miami Center
Fri 11:51:04 AM 24.0508 -72.8364 125° Southeast 510 587 37,000  Level Miami Center
Fri 11:52:04 AM 23.9658 -72.7117 127° Southeast 518 596 37,000  Level Miami Center
Fri 11:53:04 AM 23.8850 -72.5872 125° Southeast 512 589 37,000  Level Miami Center
Fri 11:54:03 AM 23.8150 -72.4783 125° Southeast 501 577 37,000  Level Miami Center
Fri 11:55:03 AM 23.7342 -72.3564 126° Southeast 501 577 37,000  Level Miami Center
Fri 11:56:03 AM 23.6550 -72.2256 123° Southeast 501 577 37,000  Level Miami Center
Fri 11:57:04 AM 23.5739 -72.1061 127° Southeast 506 582 37,000  Level Miami Center
Fri 11:58:04 AM 23.4908 -71.9847 127° Southeast 506 582 37,000  Level Miami Center
Fri 11:59:04 AM 23.4092 -71.8544 124° Southeast 506 582 37,000  Level Miami Center
Fri 12:00:04 PM 23.3258 -71.7378 128° Southeast 506 582 37,000  Level Miami Center
Fri 12:01:04 PM 23.2444 -71.6147 126° Southeast 506 582 37,000  Level Miami Center
Fri 12:02:04 PM 23.1611 -71.4983 128° Southeast 506 582 37,000  Level Miami Center
Fri 12:03:04 PM 23.0794 -71.3778 126° Southeast 506 582 37,000  Level Miami Center
Fri 12:04:04 PM 22.9975 -71.2528 125° Southeast 506 582 37,000  Level Miami Center
Fri 12:05:04 PM 22.9158 -71.1300 126° Southeast 506 582 37,000  Level Miami Center
Fri 12:06:04 PM 22.8272 -70.9989 126° Southeast 501 577 37,000  Level Miami Center
Fri 12:07:04 PM 22.7431 -70.8769 127° Southeast 501 577 37,000  Level Miami Center
Fri 12:08:04 PM 22.6611 -70.7592 127° Southeast 501 577 37,000  Level Miami Center
Fri 12:09:04 PM 22.5792 -70.6394 127° Southeast 501 577 37,000  Level Miami Center
Fri 12:10:04 PM 22.4992 -70.5197 126° Southeast 501 577 37,000  Level Miami Center
Fri 12:11:04 PM 22.4147 -70.3983 127° Southeast 501 577 37,000  Level Miami Center
Fri 12:12:04 PM 22.3303 -70.2792 127° Southeast 501 577 37,000  Level Miami Center
Fri 12:13:04 PM 22.2500 -70.1600 126° Southeast 506 582 37,000  Level Miami Center
Fri 12:14:04 PM 22.1653 -70.0389 127° Southeast 506 582 37,000  Level Miami Center
Fri 12:15:04 PM 22.0806 -69.9181 127° Southeast 506 582 37,000  Level Miami Center
Fri 12:16:04 PM 21.9983 -69.8039 128° Southeast 506 582 37,000  Level Miami Center
Fri 12:17:04 PM 21.9133 -69.6833 127° Southeast 500 575 37,000  Level Miami Center
Fri 12:18:04 PM 21.8306 -69.5650 127° Southeast 505 581 37,000  Level Miami Center
Fri 12:19:04 PM 21.7436 -69.4425 127° Southeast 505 581 37,000  Level Miami Center
Fri 12:20:04 PM 21.6628 -69.3244 126° Southeast 505 581 37,000  Level Miami Center
Fri 12:21:04 PM 21.5778 -69.2089 128° Southeast 500 575 37,000  Level Miami Center
Fri 12:22:04 PM 21.4944 -69.0869 126° Southeast 500 575 37,000  Level Miami Center
Fri 12:23:04 PM 21.4136 -68.9692 126° Southeast 505 581 37,000  Level Miami Center
Fri 12:24:04 PM 21.3283 -68.8519 128° Southeast 505 581 37,000  Level Miami Center
Fri 12:25:04 PM 21.2408 -68.7328 128° Southeast 500 575 37,000  Level Miami Center
Fri 12:26:04 PM 21.1597 -68.6178 127° Southeast 500 575 37,000  Level Miami Center
Fri 12:27:04 PM 21.0681 -68.4992 130° Southeast 500 575 37,000  Level Miami Center
Fri 12:28:04 PM 20.9844 -68.3822 127° Southeast 500 575 37,000  Level Miami Center
Fri 12:29:04 PM 20.8969 -68.2658 129° Southeast 500 575 37,000  Level Miami Center
Fri 12:30:04 PM 20.8114 -68.1494 128° Southeast 500 575 37,000 -100 Level Miami Center
Fri 12:31:04 PM 20.7236 -68.0358 130° Southeast 500 575 36,800 -750 Descending Miami Center
Fri 12:32:04 PM 20.6358 -67.9175 128° Southeast 500 575 35,500 -900 Descending Miami Center
Fri 12:33:04 PM 20.5617 -67.8253 131° Southeast 500 575 35,000 -250 Descending Miami Center
Fri 12:34:04 PM 20.4692 -67.7011 128° Southeast 495 570 35,000  Level Miami Center
Fri 12:35:04 PM 20.3789 -67.5836 129° Southeast 500 575 35,000  Level Miami Center
Fri 12:36:04 PM 20.3000 -67.4667 126° Southeast 500 575 35,000  Level San Juan Center
Fri 12:37:04 PM 20.2167 -67.3500 127° Southeast 500 575 35,000  Level San Juan Center
Fri 12:38:05 PM 20.1167 -67.2333 132° Southeast 510 587 35,000  Level San Juan Center
Fri 12:39:05 PM 20.0333 -67.1167 127° Southeast 500 575 35,000  Level San Juan Center
Fri 12:40:05 PM 19.9500 -67.0000 127° Southeast 490 564 35,000  Level San Juan Center
Fri 12:41:05 PM 19.8500 -66.8833 132° Southeast 510 587 35,000 -500 Level San Juan Center
Fri 12:42:05 PM 19.7667 -66.7667 127° Southeast 500 575 34,000 -1,140 Descending San Juan Center
Fri 12:43:06 PM 19.6833 -66.6500 127° Southeast 500 575 32,700 -1,091 Descending San Juan Center
Fri 12:44:06 PM 19.5833 -66.5333 132° Southeast 510 587 31,800 -850 Descending San Juan Center
Fri 12:45:06 PM 19.5000 -66.4167 127° Southeast 510 587 31,000 -1,636 Descending San Juan Center
Fri 12:46:07 PM 19.4167 -66.3167 131° Southeast 490 564 28,500 -2,331 Descending San Juan Center
Fri 12:47:07 PM 19.3167 -66.2000 132° Southeast 480 552 26,300 -2,281 Descending San Juan Center
Fri 12:48:08 PM 19.2500 -66.1000 125° Southeast 470 541 23,900 -2,579 Descending San Juan Center
Fri 12:49:08 PM 19.1667 -65.9833 127° Southeast 450 518 21,100 -2,900 Descending San Juan Center
Fri 12:50:08 PM 19.0667 -65.8667 132° Southeast 450 518 18,100 -2,650 Descending San Juan Center
Fri 12:51:08 PM 19.0000 -65.7667 125° Southeast 440 506 15,800 -2,281 Descending San Juan Center
Fri 12:52:09 PM 18.9167 -65.6667 131° Southeast 410 472 13,500 -2,380 Descending San Juan Center
Fri 12:53:09 PM 18.8333 -65.5833 137° Southeast 400 460 11,000 -1,900 Descending San Juan Center
Fri 12:54:09 PM 18.7500 -65.5167 143° Southeast 380 437 9,700 -1,140 Descending San Juan Center
Fri 12:55:10 PM 18.6833 -65.4667 145° Southeast 340 391 8,700 -1,388 Descending San Juan Center
Fri 12:56:10 PM 18.6167 -65.4000 137° Southeast 320 368 6,900 -1,500 Descending San Juan Center
Fri 12:57:10 PM 18.5333 -65.3500 150° Southeast 300 345 5,700 -1,140 Descending San Juan Center
Fri 12:58:11 PM 18.4667 -65.3167 155° Southeast 280 322 4,600 -1,091 Descending San Juan Center
Fri 12:59:11 PM 18.4167 -65.2500 128° Southeast 270 311 3,500 -800 Descending San Juan Center
Fri 01:00:11 PM 18.3833 -65.1833 118° Southeast 240 276 3,000 -500 Descending San Juan Center

Login

Don't have an account? Register now (free) for customized features, flight alerts, and more!